Date,TemperatureHighF,TemperatureAvgF,TemperatureLowF,DewpointHighF,DewpointAvgF,DewpointLowF,HumidityHigh,HumidityAvg,HumidityLow,PressureMaxIn,PressureMinIn,WindSpeedMaxMPH,WindSpeedAvgMPH,GustSpeedMaxMPH,PrecipitationSumIn
2014-1-1,80.0,74.3,71.9,73.3,70.0,64.9,95,87,75,30.17,30.01,16,3,16,0.30
2014-1-2,85.2,75.5,68.2,73.1,69.2,66.7,97,82,58,30.01,29.83,19,2,19,0.01
2014-1-3,72.0,62.0,56.7,70.2,55.3,44.4,95,79,60,30.16,29.85,24,8,24,0.08
2014-1-4,72.6,68.6,57.0,69.7,63.4,53.5,92,84,72,30.15,30.02,9,2,13,0.03
2014-1-5,82.8,74.7,68.7,74.6,70.0,66.5,93,86,72,30.04,29.91,22,2,22,0.14
2014-1-6,83.9,71.6,56.3,73.8,64.9,38.9,98,81,52,30.17,29.93,23,4,23,0.01
2014-1-7,56.6,51.6,46.7,50.0,42.1,30.6,86,71,46,30.28,30.17,23,10,23,0.00
2014-1-8,70.0,61.6,49.7,65.6,59.2,45.9,95,92,86,30.27,30.16,19,6,19,0.07
2014-1-9,76.0,72.6,68.5,72.8,69.9,65.5,97,91,86,30.20,30.09,20,4,20,0.16
2014-1-10,80.4,74.7,68.6,73.0,71.0,67.4,97,89,75,30.13,30.02,14,4,20,0.05
2014-1-11,85.7,77.1,72.2,74.3,71.8,69.7,96,85,65,30.08,29.93,17,2,17,0.00
2014-1-12,76.3,69.8,62.0,70.5,63.5,58.3,96,82,56,30.13,29.98,14,4,14,0.00
2014-1-13,81.0,71.6,61.8,71.5,66.7,58.5,97,85,68,30.12,30.00,15,2,15,0.00
2014-1-14,83.8,74.1,66.9,74.2,68.6,65.6,97,84,64,30.00,29.90,21,2,21,0.00
2014-1-15,69.5,64.0,57.5,65.8,58.6,51.6,96,83,63,30.00,29.90,17,3,17,0.22
2014-1-16,57.6,54.5,46.5,54.4,43.8,28.9,89,69,35,30.12,29.91,24,6,24,0.01
2014-1-17,63.4,53.1,42.7,47.4,40.9,31.4,85,65,41,30.18,30.06,10,2,10,0.00
2014-1-18,64.8,55.1,47.6,50.8,45.5,40.2,90,71,50,30.20,30.11,19,3,19,0.00
2014-1-19,68.4,54.3,41.4,49.6,41.1,35.7,86,64,33,30.25,30.11,10,2,16,0.00
2014-1-20,76.4,64.4,54.3,59.9,55.5,48.7,92,74,53,30.16,30.00,9,2,19,0.00
2014-1-21,74.2,64.9,60.4,63.5,59.2,57.3,93,82,65,30.03,29.85,7,3,20,0.00
2014-1-22,60.8,55.3,47.7,59.4,43.8,34.1,95,68,38,30.14,29.86,12,6,21,0.00
2014-1-23,69.2,55.3,43.2,55.5,46.7,35.8,89,74,53,30.25,30.12,8,4,15,0.00
2014-1-24,67.1,59.1,53.9,55.5,52.3,50.0,90,79,62,30.35,30.19,13,6,19,0.00
2014-1-25,78.2,63.3,50.6,61.9,55.2,48.0,93,77,50,30.19,30.01,5,1,13,0.00
2014-1-26,80.1,67.1,55.4,63.8,57.9,51.9,95,75,40,30.06,29.94,11,1,11,0.00
2014-1-27,84.3,72.2,60.5,67.3,62.9,58.3,94,75,48,30.00,29.90,14,1,14,0.00
2014-1-28,85.0,71.8,61.5,70.3,65.1,59.7,96,81,52,30.05,29.92,9,1,14,0.00
2014-1-29,74.5,67.3,60.9,71.3,65.3,59.0,96,93,87,30.05,29.95,17,4,17,0.19
2014-1-30,66.3,63.7,59.9,65.1,62.5,58.3,97,96,94,30.08,29.99,14,4,14,0.40
2014-1-31,82.7,72.2,64.3,75.4,70.0,63.4,99,93,75,30.05,29.96,15,2,15,0.74